Time;durP1;ratioP1;P1;durP2;ratioP2;P2;SDS_P1;SDS_P2;PMS_P1;PMS_P2;Temp;Humidity;BMP_temperature;BMP_pressure;BME280_temperature;BME280_humidity;BME280_pressure;Samples;Min_cycle;Max_cycle;Signal;HPM_P1;HPM_P2
2022/07/08 05:57:19;;;;;;;;;10.00;9.00;;;;;18.03;52.48;102748.03;5067275;28;45334;-70
2022/07/08 05:59:45;;;;;;;;;8.00;6.00;;;;;17.90;52.44;102725.94;5049017;28;45417;-72
2022/07/08 06:02:11;;;;;;;;;8.00;6.00;;;;;18.13;52.13;102741.03;5050977;28;45572;-72
2022/07/08 06:04:36;;;;;;;;;13.33;9.00;;;;;18.32;52.34;102750.78;5053261;28;45346;-69
2022/07/08 06:07:03;;;;;;;;;9.67;8.00;;;;;18.56;51.31;102754.38;5048491;28;47444;-72
2022/07/08 06:09:28;;;;;;;;;5.00;3.00;;;;;18.85;50.83;102751.75;5049661;28;45476;-67
2022/07/08 06:11:54;;;;;;;;;8.33;7.00;;;;;19.13;50.10;102754.38;5037062;28;45497;-73
2022/07/08 06:14:19;;;;;;;;;6.33;6.00;;;;;19.18;49.58;102715.41;5048590;28;45608;-69
2022/07/08 06:16:48;;;;;;;;;9.67;8.33;;;;;19.64;49.07;102755.13;5052619;28;45402;-69
2022/07/08 06:19:15;;;;;;;;;8.67;5.33;;;;;19.80;48.66;102743.56;5049460;28;45648;-68
2022/07/08 06:21:41;;;;;;;;;6.00;6.00;;;;;20.05;47.83;102762.03;5050391;28;45423;-68
2022/07/08 06:24:07;;;;;;;;;5.00;5.00;;;;;20.05;46.73;102760.28;5052264;28;45354;-68
2022/07/08 06:26:32;;;;;;;;;6.00;5.00;;;;;19.91;47.96;102741.75;5049716;27;45453;-69
2022/07/08 06:28:58;;;;;;;;;8.00;4.33;;;;;19.94;47.24;102747.94;5049132;27;45498;-69
2022/07/08 06:31:24;;;;;;;;;6.67;4.00;;;;;19.95;47.38;102741.72;5064581;28;45602;-70
2022/07/08 06:33:56;;;;;;;;;5.00;4.00;;;;;20.17;46.75;102764.66;5039879;28;46051;-70
2022/07/08 06:36:25;;;;;;;;;4.33;4.00;;;;;20.37;46.46;102772.50;5045483;28;46068;-69
2022/07/08 06:38:52;;;;;;;;;3.67;3.67;;;;;20.54;46.43;102772.38;5049159;28;45531;-69
2022/07/08 06:41:18;;;;;;;;;6.67;6.33;;;;;20.66;47.18;102775.00;5049664;28;45398;-67
2022/07/08 06:43:46;;;;;;;;;6.00;6.00;;;;;20.88;46.08;102769.47;5050421;28;45264;-70
2022/07/08 06:46:13;;;;;;;;;5.67;5.67;;;;;20.88;45.38;102770.38;5052355;28;45982;-69
2022/07/08 06:48:38;;;;;;;;;5.00;5.00;;;;;20.83;45.97;102765.97;5049326;28;45672;-71
2022/07/08 06:51:04;;;;;;;;;7.67;6.00;;;;;20.80;45.40;102769.56;5049132;28;45496;-71
2022/07/08 06:56:15;;;;;;;;;9.00;6.00;;;;;20.99;44.98;102764.94;5060189;28;45599;-70
2022/07/08 06:58:40;;;;;;;;;7.00;6.67;;;;;20.90;44.58;102770.34;5069217;28;46063;-70
2022/07/08 07:01:06;;;;;;;;;6.33;6.00;;;;;20.84;45.00;102773.97;5069343;27;45497;-68
2022/07/08 07:03:31;;;;;;;;;8.67;6.33;;;;;20.80;45.01;102761.56;5069011;28;45492;-69
2022/07/08 07:05:57;;;;;;;;;8.00;6.00;;;;;20.83;44.65;102766.84;5069779;28;45388;-70
2022/07/08 07:08:22;;;;;;;;;8.67;6.33;;;;;20.75;45.75;102766.06;5057157;28;45661;-69
2022/07/08 07:10:48;;;;;;;;;9.00;5.00;;;;;20.91;45.44;102777.47;5053586;28;45295;-68
2022/07/08 07:13:14;;;;;;;;;5.00;5.00;;;;;21.11;44.84;102774.59;5032695;28;45572;-69
2022/07/08 07:15:39;;;;;;;;;6.67;6.67;;;;;21.22;44.30;102754.06;5036654;28;45492;-68
2022/07/08 07:18:06;;;;;;;;;9.67;7.33;;;;;21.41;44.11;102767.25;5034922;28;45554;-70
2022/07/08 07:20:31;;;;;;;;;7.00;6.00;;;;;21.52;43.94;102776.88;5035155;28;45610;-69
2022/07/08 07:22:57;;;;;;;;;10.67;8.00;;;;;21.52;43.86;102782.22;5033069;28;46551;-69
2022/07/08 07:25:23;;;;;;;;;9.33;5.67;;;;;21.46;44.14;102771.63;5039982;28;46029;-70
2022/07/08 07:27:48;;;;;;;;;5.67;5.67;;;;;21.55;43.87;102760.84;5044407;28;45757;-70
2022/07/08 07:30:17;;;;;;;;;5.67;5.67;;;;;21.55;43.44;102743.97;5041625;28;45858;-70
2022/07/08 07:32:43;;;;;;;;;13.33;8.00;;;;;21.81;42.75;102773.00;5032636;28;45875;-69
2022/07/08 07:35:09;;;;;;;;;6.00;4.67;;;;;21.77;43.24;102749.91;5050053;28;46055;-69
2022/07/08 07:37:37;;;;;;;;;5.33;5.33;;;;;22.03;42.67;102776.25;5051735;28;45597;-70
2022/07/08 07:40:06;;;;;;;;;7.00;7.00;;;;;22.04;42.18;102775.34;5051942;28;45472;-69
2022/07/08 07:42:32;;;;;;;;;7.00;7.00;;;;;21.97;42.85;102763.88;5052706;28;45452;-72
2022/07/08 07:44:57;;;;;;;;;7.33;6.00;;;;;21.68;42.67;102761.56;5045382;28;45481;-68
2022/07/08 07:47:23;;;;;;;;;6.33;5.33;;;;;21.73;43.33;102781.06;5031833;28;45401;-71
2022/07/08 07:49:50;;;;;;;;;6.67;5.00;;;;;21.77;43.13;102766.78;5044316;28;45549;-71
2022/07/08 07:52:16;;;;;;;;;6.67;4.00;;;;;21.94;42.58;102782.56;5022874;28;45316;-70
2022/07/08 07:54:45;;;;;;;;;11.33;7.00;;;;;21.93;42.48;102762.16;5028709;28;45604;-73
2022/07/08 07:57:11;;;;;;;;;5.00;5.00;;;;;22.00;42.10;102770.97;5042800;28;45414;-71
2022/07/08 07:59:37;;;;;;;;;7.67;7.67;;;;;21.85;42.49;102776.47;5045366;28;45441;-70
2022/07/08 08:02:03;;;;;;;;;7.67;7.67;;;;;21.85;43.33;102741.81;5026951;28;45939;-71
2022/07/08 08:04:28;;;;;;;;;10.33;7.67;;;;;22.03;42.55;102750.44;5042287;28;45474;-71
2022/07/08 08:06:54;;;;;;;;;11.00;7.00;;;;;22.11;41.96;102762.78;5044468;28;45844;-72
2022/07/08 08:09:19;;;;;;;;;9.00;8.67;;;;;21.76;42.72;102721.50;5044237;28;45591;-69
2022/07/08 08:11:49;;;;;;;;;12.00;9.00;;;;;21.86;42.69;102732.91;5048513;28;45549;-72
2022/07/08 08:14:14;;;;;;;;;9.00;8.00;;;;;22.05;42.47;102750.44;5038116;28;46694;-73
2022/07/08 08:16:40;;;;;;;;;8.00;6.00;;;;;22.09;42.32;102769.94;5052945;28;45465;-69
2022/07/08 08:19:05;;;;;;;;;7.67;5.33;;;;;22.06;42.33;102767.31;5046530;28;45546;-68
2022/07/08 08:21:31;;;;;;;;;10.00;9.00;;;;;22.05;42.57;102761.09;5046492;28;45621;-71
2022/07/08 08:23:57;;;;;;;;;10.33;9.67;;;;;22.13;42.29;102761.00;5049395;28;46563;-69
2022/07/08 08:26:22;;;;;;;;;9.67;9.67;;;;;22.14;42.49;102730.72;5039676;28;45672;-68
2022/07/08 08:28:51;;;;;;;;;11.33;10.00;;;;;22.39;42.70;102765.97;5045915;28;45537;-71
2022/07/08 08:31:17;;;;;;;;;10.33;10.33;;;;;22.39;42.40;102749.97;5045920;28;46058;-68
2022/07/08 08:33:42;;;;;;;;;15.00;11.00;;;;;22.47;41.88;102764.09;5046075;28;45500;-67
2022/07/08 08:36:08;;;;;;;;;9.33;8.67;;;;;22.32;41.43;102753.63;5054126;28;45596;-68
2022/07/08 08:38:34;;;;;;;;;8.67;7.33;;;;;22.08;42.20;102730.81;5048370;28;45917;-71
2022/07/08 08:41:01;;;;;;;;;12.67;8.00;;;;;22.12;42.22;102749.44;5045460;28;46492;-69
2022/07/08 08:43:27;;;;;;;;;10.00;7.67;;;;;22.13;41.07;102742.31;5045955;28;45722;-65
2022/07/08 08:45:53;;;;;;;;;9.67;9.33;;;;;22.09;41.04;102754.84;5044949;28;45936;-67
2022/07/08 08:48:22;;;;;;;;;10.67;8.33;;;;;21.94;42.30;102731.00;5051829;28;46511;-67
2022/07/08 08:50:54;;;;;;;;;9.33;9.00;;;;;22.07;41.99;102740.63;5033501;28;45750;-69
2022/07/08 08:53:25;;;;;;;;;7.33;7.00;;;;;22.22;41.42;102743.09;5041756;28;45695;-69
2022/07/08 08:55:52;;;;;;;;;11.00;8.00;;;;;22.39;42.60;102745.50;5046611;28;45807;-68
2022/07/08 08:58:19;;;;;;;;;6.33;5.67;;;;;22.36;41.31;102716.19;5043947;28;45512;-71
2022/07/08 09:00:44;;;;;;;;;6.67;6.67;;;;;22.55;40.92;102722.09;5036232;28;45901;-72
2022/07/08 09:03:10;;;;;;;;;7.33;6.00;;;;;22.68;40.65;102740.59;5047405;28;45557;-70
2022/07/08 09:05:36;;;;;;;;;9.67;7.33;;;;;22.57;40.31;102733.66;5028536;28;45963;-70
2022/07/08 09:08:01;;;;;;;;;7.00;7.00;;;;;22.55;39.83;102731.91;5043034;28;45622;-71
2022/07/08 09:10:27;;;;;;;;;6.00;5.67;;;;;22.36;39.63;102705.50;5041111;28;45647;-70
2022/07/08 09:13:12;;;;;;;;;5.67;5.67;;;;;22.55;39.50;102723.91;5044556;28;45607;-72
2022/07/08 09:15:44;;;;;;;;;6.33;6.00;;;;;22.53;39.58;102725.72;5035196;28;45502;-71
2022/07/08 09:18:11;;;;;;;;;8.33;7.00;;;;;22.57;39.49;102717.63;5043276;28;45353;-70
2022/07/08 09:20:48;;;;;;;;;5.33;5.33;;;;;22.52;39.46;102705.25;5040166;28;45257;-69
2022/07/08 09:23:17;;;;;;;;;4.67;4.33;;;;;22.68;39.58;102713.88;5031140;28;46538;-70
2022/07/08 09:25:45;;;;;;;;;5.00;5.00;;;;;22.60;39.14;102693.53;5039289;28;45760;-68
2022/07/08 09:28:11;;;;;;;;;7.67;7.00;;;;;22.75;38.98;102708.41;5041957;28;45419;-68
2022/07/08 09:30:39;;;;;;;;;9.00;8.00;;;;;22.54;38.36;102701.66;5039194;28;45356;-71
2022/07/08 09:33:04;;;;;;;;;9.67;7.33;;;;;22.41;38.79;102719.66;5037113;28;45445;-70
2022/07/08 09:35:37;;;;;;;;;9.00;7.33;;;;;22.38;39.60;102711.72;5053507;28;45457;-70
2022/07/08 09:38:07;;;;;;;;;9.33;6.67;;;;;22.50;39.12;102710.63;5053732;28;45608;-69
2022/07/08 09:40:34;;;;;;;;;8.00;8.00;;;;;22.50;39.19;102709.75;5053040;28;45750;-69
2022/07/08 09:43:01;;;;;;;;;9.33;7.67;;;;;22.48;39.15;102701.75;5052646;28;45550;-69
2022/07/08 09:45:32;;;;;;;;;7.33;7.33;;;;;22.51;39.20;102696.34;5052928;28;45561;-69
2022/07/08 09:48:08;;;;;;;;;6.00;6.00;;;;;22.60;38.87;102700.66;5053885;28;45339;-70
2022/07/08 09:50:39;;;;;;;;;9.33;8.33;;;;;22.60;38.20;102708.69;5054596;28;45477;-70
2022/07/08 09:53:11;;;;;;;;;7.00;6.00;;;;;22.58;38.54;102707.81;5052461;28;45450;-69
2022/07/08 09:55:40;;;;;;;;;9.33;8.00;;;;;22.60;38.48;102692.66;5053611;28;45870;-67
2022/07/08 09:58:06;;;;;;;;;11.33;8.00;;;;;22.66;38.39;102705.91;5053358;28;45454;-68
2022/07/08 10:00:33;;;;;;;;;7.67;7.33;;;;;22.71;38.07;102701.38;5053312;28;45682;-68
2022/07/08 10:03:03;;;;;;;;;7.00;6.00;;;;;22.79;38.18;102699.44;5052715;28;46491;-67
2022/07/08 10:05:29;;;;;;;;;6.00;6.00;;;;;22.86;37.61;102703.75;5052609;28;45470;-71
2022/07/08 10:07:55;;;;;;;;;5.33;5.33;;;;;22.93;37.64;102706.31;5053364;28;45553;-69
2022/07/08 10:10:21;;;;;;;;;7.33;6.00;;;;;23.02;37.70;102706.19;5052972;28;45548;-69
2022/07/08 10:12:47;;;;;;;;;9.00;8.00;;;;;23.03;37.21;102692.78;5053173;28;45484;-69
2022/07/08 10:15:14;;;;;;;;;7.67;6.00;;;;;23.06;36.68;102697.19;5052655;28;45749;-72
2022/07/08 10:17:43;;;;;;;;;8.00;5.33;;;;;22.93;36.97;102683.16;5056223;28;45311;-68
2022/07/08 10:20:11;;;;;;;;;6.67;5.67;;;;;23.14;36.94;102695.25;5053339;28;45786;-67
2022/07/08 10:22:39;;;;;;;;;7.33;7.33;;;;;23.22;36.20;102698.66;5053005;28;46137;-70
2022/07/08 10:25:05;;;;;;;;;8.33;5.33;;;;;23.14;35.81;102681.03;5053144;28;45299;-69
2022/07/08 10:27:31;;;;;;;;;5.33;5.00;;;;;23.20;35.62;102681.75;5035506;28;45472;-69
2022/07/08 10:30:16;;;;;;;;;5.67;5.00;;;;;23.29;35.58;102681.56;5040146;28;45328;-70
2022/07/08 10:32:47;;;;;;;;;6.67;6.67;;;;;23.25;35.77;102693.25;5052246;28;45433;-71
2022/07/08 10:35:20;;;;;;;;;5.00;5.00;;;;;23.26;36.35;102686.13;5043604;28;45496;-72
2022/07/08 10:37:51;;;;;;;;;6.33;6.33;;;;;23.36;36.20;102678.78;5054564;28;45454;-71
2022/07/08 10:40:37;;;;;;;;;3.00;3.00;;;;;23.54;36.21;102690.88;5052745;28;45448;-71
2022/07/08 10:43:23;;;;;;;;;8.00;6.33;;;;;23.56;36.22;102660.50;5053886;28;45526;-70
2022/07/08 10:46:01;;;;;;;;;6.67;5.00;;;;;23.79;35.85;102683.22;5056395;28;45661;-72
2022/07/08 10:48:46;;;;;;;;;5.33;5.33;;;;;23.92;35.53;102690.06;5056050;28;45750;-72
2022/07/08 10:51:29;;;;;;;;;8.67;6.00;;;;;24.05;35.43;102696.00;5054562;28;45628;-71
2022/07/08 10:53:57;;;;;;;;;6.67;5.00;;;;;24.02;35.42;102680.91;5055450;28;45368;-71
2022/07/08 10:56:53;;;;;;;;;6.00;5.33;;;;;24.02;35.33;102685.38;5055646;28;45514;-71
2022/07/08 10:59:30;;;;;;;;;6.00;6.00;;;;;24.13;35.22;102680.63;5055597;28;45300;-69
2022/07/08 11:02:11;;;;;;;;;6.33;6.00;;;;;24.25;34.57;102684.81;5051239;28;45421;-72
2022/07/08 11:04:37;;;;;;;;;6.00;5.00;;;;;24.43;34.48;102688.84;5036753;28;46629;-72
2022/07/08 11:07:18;;;;;;;;;7.33;5.00;;;;;24.57;33.89;102685.84;5054174;28;45338;-74
2022/07/08 11:09:49;;;;;;;;;5.00;5.00;;;;;24.63;33.11;102674.97;5054329;28;45497;-74
2022/07/08 11:12:17;;;;;;;;;4.33;4.33;;;;;24.73;33.45;102680.03;5055681;28;45453;-71
2022/07/08 11:14:47;;;;;;;;;5.67;5.67;;;;;24.84;33.39;102670.84;5055732;28;45489;-72
2022/07/08 11:17:28;;;;;;;;;4.67;4.67;;;;;24.90;33.18;102662.63;5055693;28;45362;-70
2022/07/08 11:19:55;;;;;;;;;3.67;3.33;;;;;25.08;33.40;102671.94;5055833;28;45394;-70
2022/07/08 11:22:22;;;;;;;;;4.33;2.67;;;;;25.04;32.42;102664.94;5056015;28;45415;-72
2022/07/08 11:24:48;;;;;;;;;5.67;5.33;;;;;25.02;32.46;102650.69;5059497;28;46487;-72
2022/07/08 11:27:15;;;;;;;;;6.33;4.67;;;;;25.10;32.11;102664.75;5059248;28;45300;-71
2022/07/08 11:29:49;;;;;;;;;4.00;4.00;;;;;25.04;32.35;102654.22;5056733;28;45428;-71
2022/07/08 11:32:17;;;;;;;;;4.00;4.00;;;;;25.15;32.26;102655.66;5055269;28;45730;-71
2022/07/08 11:34:46;;;;;;;;;8.00;5.00;;;;;25.14;32.03;102635.13;5041399;28;46047;-71
2022/07/08 11:37:12;;;;;;;;;6.67;3.33;;;;;25.36;31.15;102658.66;5055210;28;45704;-71
2022/07/08 11:39:38;;;;;;;;;2.67;2.67;;;;;25.28;30.91;102653.53;5059941;28;45577;-71
2022/07/08 11:42:05;;;;;;;;;5.00;3.00;;;;;25.35;31.22;102656.91;5060358;28;45461;-68
2022/07/08 11:44:30;;;;;;;;;4.67;4.00;;;;;25.36;31.28;102639.88;5058333;28;46433;-71
2022/07/08 11:46:57;;;;;;;;;4.67;4.00;;;;;25.51;31.56;102643.94;5059403;28;45374;-70
2022/07/08 11:49:24;;;;;;;;;4.33;4.33;;;;;25.69;32.22;102659.44;5056098;28;45808;-70
2022/07/08 11:51:52;;;;;;;;;4.00;4.00;;;;;25.67;31.08;102622.84;5055443;28;45418;-69
2022/07/08 11:54:23;;;;;;;;;5.00;5.00;;;;;25.94;30.88;102654.22;5059476;28;46126;-69
2022/07/08 11:56:55;;;;;;;;;3.00;3.00;;;;;26.04;31.07;102654.78;5058240;28;45325;-71
2022/07/08 11:59:28;;;;;;;;;4.75;4.75;;;;;26.08;30.40;102651.09;5059721;28;45284;-70
2022/07/08 12:01:56;;;;;;;;;7.00;5.00;;;;;26.04;30.40;102633.31;5056072;28;45316;-71
2022/07/08 12:04:22;;;;;;;;;5.00;5.00;;;;;26.14;30.53;102647.31;5054881;28;45381;-71
2022/07/08 12:06:49;;;;;;;;;5.67;5.67;;;;;26.04;30.40;102635.13;5055149;28;45406;-70
2022/07/08 12:09:17;;;;;;;;;4.25;4.00;;;;;26.12;31.24;102644.66;5054952;28;46027;-72
2022/07/08 12:11:48;;;;;;;;;4.25;4.25;;;;;26.20;30.73;102647.13;5054974;28;45557;-70
2022/07/08 12:14:14;;;;;;;;;4.00;4.00;;;;;26.31;30.49;102647.59;5040293;28;46137;-71
2022/07/08 12:16:45;;;;;;;;;5.67;4.67;;;;;26.36;30.20;102624.19;5054514;28;45425;-71
2022/07/08 12:19:34;;;;;;;;;5.25;4.00;;;;;26.45;30.24;102642.63;5055361;28;45473;-71
2022/07/08 12:22:02;;;;;;;;;2.00;2.00;;;;;26.55;30.01;102637.88;5054672;28;45756;-69
2022/07/08 12:24:36;;;;;;;;;4.25;3.00;;;;;26.68;30.01;102632.06;5054179;28;45388;-72
2022/07/08 12:27:05;;;;;;;;;3.50;3.25;;;;;26.80;29.88;102628.94;5054265;28;45709;-71
2022/07/08 12:29:32;;;;;;;;;3.50;3.50;;;;;26.90;30.28;102629.47;5054245;28;45335;-71
2022/07/08 12:31:59;;;;;;;;;4.50;3.25;;;;;27.06;29.80;102633.34;5054842;28;45232;-71
2022/07/08 12:34:25;;;;;;;;;4.00;4.00;;;;;27.11;29.71;102612.53;5040171;28;46144;-71
2022/07/08 12:36:52;;;;;;;;;3.00;3.00;;;;;27.18;29.87;102611.34;5054222;28;45309;-72
2022/07/08 12:39:27;;;;;;;;;3.50;3.50;;;;;27.31;29.75;102616.28;5054318;28;45423;-72
2022/07/08 12:42:01;;;;;;;;;4.75;3.00;;;;;27.41;29.24;102615.00;5054591;28;45448;-71
2022/07/08 12:44:50;;;;;;;;;3.75;3.75;;;;;27.47;29.51;102612.94;5035339;28;45750;-69
2022/07/08 12:47:16;;;;;;;;;8.00;5.00;;;;;27.59;29.29;102610.69;5041847;28;45497;-71
2022/07/08 12:49:47;;;;;;;;;5.75;5.00;;;;;27.68;29.32;102604.94;5052391;28;45359;-71
2022/07/08 12:52:14;;;;;;;;;4.00;4.00;;;;;27.80;28.93;102601.75;5054320;28;45872;-71
2022/07/08 12:54:41;;;;;;;;;5.00;5.00;;;;;27.67;28.91;102581.69;5053669;28;45431;-71
2022/07/08 12:57:08;;;;;;;;;6.75;4.00;;;;;27.81;29.22;102590.06;5052839;28;45608;-69
2022/07/08 12:59:34;;;;;;;;;3.75;3.00;;;;;28.00;29.38;102597.38;5036364;28;45406;-71
2022/07/08 13:02:00;;;;;;;;;3.75;3.75;;;;;28.10;28.96;102591.53;5054204;28;45740;-70
2022/07/08 13:04:27;;;;;;;;;2.25;2.25;;;;;28.13;28.44;102582.47;5053764;28;45417;-70
2022/07/08 13:06:55;;;;;;;;;3.50;3.50;;;;;28.31;28.69;102595.16;5056843;28;45519;-72
2022/07/08 13:09:22;;;;;;;;;5.75;4.00;;;;;28.37;28.23;102595.81;5058127;28;45541;-72
2022/07/08 13:11:51;;;;;;;;;2.50;2.50;;;;;28.43;28.29;102593.72;5056555;28;45473;-73
2022/07/08 13:14:18;;;;;;;;;4.00;4.00;;;;;28.37;27.20;102588.59;5053559;28;46398;-71
2022/07/08 13:16:44;;;;;;;;;4.00;3.75;;;;;28.04;27.18;102567.56;5053764;28;45759;-70
2022/07/08 13:19:10;;;;;;;;;3.25;3.25;;;;;28.00;27.60;102575.81;5057081;28;45442;-72
2022/07/08 13:21:36;;;;;;;;;3.75;3.00;;;;;28.05;28.01;102579.22;5053872;28;45520;-72
2022/07/08 13:24:03;;;;;;;;;5.50;3.00;;;;;28.10;28.12;102569.13;5053243;28;45426;-72
2022/07/08 13:26:29;;;;;;;;;3.25;2.75;;;;;28.24;28.27;102584.72;5053180;28;45385;-72
2022/07/08 13:28:55;;;;;;;;;3.75;3.00;;;;;28.39;28.12;102593.94;5053387;28;45532;-73
2022/07/08 13:31:22;;;;;;;;;5.00;4.25;;;;;28.41;27.76;102571.34;5053817;28;45460;-70
2022/07/08 13:33:48;;;;;;;;;4.00;4.00;;;;;28.43;27.12;102577.56;5044117;28;46085;-71
2022/07/08 13:36:17;;;;;;;;;5.50;3.50;;;;;28.32;27.59;102586.09;5048308;28;45516;-72
2022/07/08 13:38:43;;;;;;;;;3.25;3.00;;;;;28.26;27.23;102586.38;5053549;28;45636;-71
2022/07/08 13:41:09;;;;;;;;;5.00;3.00;;;;;27.97;27.33;102549.91;5053722;28;45429;-70
2022/07/08 13:43:35;;;;;;;;;3.00;3.00;;;;;28.08;27.42;102573.69;5055289;28;46110;-70
2022/07/08 13:46:01;;;;;;;;;3.25;3.25;;;;;28.08;27.28;102565.63;5054075;28;45671;-72
2022/07/08 13:48:27;;;;;;;;;3.00;3.00;;;;;28.03;27.35;102575.72;5053611;28;45348;-69
2022/07/08 13:50:52;;;;;;;;;4.00;3.00;;;;;28.00;27.72;102579.44;5053553;28;45502;-71
2022/07/08 13:53:18;;;;;;;;;3.00;2.75;;;;;28.09;27.85;102579.00;5052789;28;45728;-70
2022/07/08 13:55:43;;;;;;;;;4.00;3.25;;;;;28.14;27.41;102554.56;5051658;28;45432;-70
2022/07/08 13:58:09;;;;;;;;;1.00;1.00;;;;;28.30;27.54;102565.56;5053568;28;45761;-70
2022/07/08 14:00:37;;;;;;;;;3.25;3.25;;;;;28.35;27.74;102550.06;5053221;28;45358;-71
2022/07/08 14:03:03;;;;;;;;;4.00;3.50;;;;;28.52;27.23;102552.03;5053128;28;46206;-71
2022/07/08 14:05:28;;;;;;;;;2.50;2.50;;;;;28.73;27.37;102567.22;5056247;28;45535;-70
2022/07/08 14:07:54;;;;;;;;;2.50;2.50;;;;;28.84;27.08;102552.41;5053189;28;45445;-72
2022/07/08 14:10:20;;;;;;;;;2.75;2.75;;;;;28.89;27.23;102551.22;5053334;28;45379;-71
2022/07/08 14:12:45;;;;;;;;;4.75;3.00;;;;;29.01;27.04;102559.69;5052650;28;45413;-71
2022/07/08 14:15:11;;;;;;;;;5.00;3.00;;;;;29.16;26.57;102564.38;5052953;28;45451;-71
2022/07/08 14:17:41;;;;;;;;;3.50;2.00;;;;;29.10;26.45;102548.50;5054310;28;45442;-71
2022/07/08 14:20:07;;;;;;;;;3.00;3.00;;;;;29.22;26.69;102555.13;5038080;28;45412;-71
2022/07/08 14:22:33;;;;;;;;;2.00;2.00;;;;;29.30;26.59;102553.78;5056218;28;45537;-71
2022/07/08 14:24:59;;;;;;;;;4.50;2.00;;;;;29.31;26.74;102543.91;5056708;28;45984;-71
2022/07/08 14:27:24;;;;;;;;;3.50;3.50;;;;;29.42;26.54;102546.94;5042301;28;45583;-70
2022/07/08 14:29:50;;;;;;;;;3.00;3.00;;;;;29.38;26.17;102532.72;5061272;28;45484;-72
2022/07/08 14:32:16;;;;;;;;;3.25;3.25;;;;;29.49;26.23;102542.09;5056208;28;45463;-69
2022/07/08 14:34:41;;;;;;;;;2.00;2.00;;;;;29.44;25.74;102531.53;5042986;28;45423;-71
2022/07/08 14:37:07;;;;;;;;;2.75;2.50;;;;;29.50;25.71;102533.94;5056266;28;45474;-73
2022/07/08 14:39:32;;;;;;;;;2.50;2.50;;;;;29.49;26.48;102539.41;5040575;28;45473;-71
2022/07/08 14:41:58;;;;;;;;;2.00;2.00;;;;;29.37;25.61;102536.34;5058030;28;45428;-70
2022/07/08 14:44:24;;;;;;;;;5.25;3.75;;;;;29.22;26.31;102520.94;5056192;28;45544;-72
2022/07/08 14:46:50;;;;;;;;;2.75;2.50;;;;;29.29;25.97;102526.91;5054213;28;45536;-71
2022/07/08 14:49:15;;;;;;;;;3.00;3.00;;;;;29.36;26.13;102528.34;5056818;28;45532;-70
2022/07/08 14:51:42;;;;;;;;;3.00;3.00;;;;;29.32;25.46;102533.00;5056357;28;45641;-70
2022/07/08 14:54:07;;;;;;;;;3.00;2.25;;;;;29.22;26.08;102529.03;5058225;28;45417;-70
2022/07/08 14:56:33;;;;;;;;;2.00;2.00;;;;;29.24;26.07;102537.91;5060043;28;45929;-71
2022/07/08 14:58:58;;;;;;;;;3.25;2.25;;;;;29.29;26.31;102532.31;5056907;28;45405;-72
2022/07/08 15:01:24;;;;;;;;;2.00;2.00;;;;;29.37;26.58;102524.69;5055910;28;45343;-70
2022/07/08 15:03:50;;;;;;;;;3.00;3.00;;;;;29.45;26.00;102533.31;5056316;28;45541;-72
2022/07/08 15:06:16;;;;;;;;;3.50;3.00;;;;;29.52;26.60;102528.44;5056172;28;45609;-70
2022/07/08 15:08:41;;;;;;;;;3.00;3.00;;;;;29.58;26.46;102522.75;5056903;28;45485;-70
2022/07/08 15:11:07;;;;;;;;;3.50;2.25;;;;;29.68;26.50;102515.97;5054503;28;45496;-70
2022/07/08 15:13:33;;;;;;;;;3.75;2.00;;;;;29.78;26.65;102509.16;5056190;28;45503;-73
2022/07/08 15:15:59;;;;;;;;;2.00;2.00;;;;;29.89;26.06;102508.59;5041369;28;45415;-71
2022/07/08 15:18:25;;;;;;;;;3.25;3.25;;;;;29.90;26.44;102518.47;5059264;28;45221;-72
2022/07/08 15:20:51;;;;;;;;;3.00;2.00;;;;;29.93;26.30;102502.09;5055850;28;46029;-71
2022/07/08 15:23:20;;;;;;;;;2.50;1.75;;;;;29.94;26.46;102503.81;5055059;28;45334;-70
2022/07/08 15:25:46;;;;;;;;;3.00;3.00;;;;;29.91;25.82;102498.59;5055750;28;45425;-71
2022/07/08 15:28:12;;;;;;;;;3.50;3.00;;;;;29.91;26.31;102501.28;5057745;28;45447;-71
2022/07/08 15:30:38;;;;;;;;;6.00;3.50;;;;;29.90;26.42;102495.94;5059081;28;45988;-70
2022/07/08 15:33:06;;;;;;;;;3.00;3.00;;;;;29.86;26.51;102500.66;5052148;28;45477;-70
2022/07/08 15:35:32;;;;;;;;;3.00;3.00;;;;;29.76;26.68;102472.38;5044668;28;45513;-70
2022/07/08 15:37:58;;;;;;;;;2.50;2.50;;;;;29.87;26.40;102488.88;5055595;28;45484;-70
2022/07/08 15:40:23;;;;;;;;;4.00;4.00;;;;;29.86;26.05;102492.56;5057589;28;46093;-70
2022/07/08 15:42:49;;;;;;;;;1.50;1.00;;;;;29.90;26.71;102496.84;5059114;28;45526;-71
2022/07/08 15:45:14;;;;;;;;;2.00;2.00;;;;;29.90;25.79;102493.25;5059108;28;45438;-70
2022/07/08 15:47:40;;;;;;;;;1.50;1.50;;;;;29.87;26.39;102485.31;5040089;28;45455;-69
2022/07/08 15:50:06;;;;;;;;;2.75;2.00;;;;;29.94;26.14;102489.44;5054492;28;46518;-68
2022/07/08 15:52:32;;;;;;;;;4.00;3.00;;;;;29.88;25.25;102469.03;5054380;28;45723;-72
2022/07/08 15:54:57;;;;;;;;;3.00;3.00;;;;;29.91;25.87;102476.09;5054844;28;45419;-71
2022/07/08 15:57:23;;;;;;;;;4.00;3.00;;;;;29.83;25.41;102475.63;5058462;28;45347;-70
2022/07/08 15:59:48;;;;;;;;;2.00;2.00;;;;;29.79;26.04;102477.63;5055036;28;46006;-70
2022/07/08 16:02:14;;;;;;;;;1.50;1.50;;;;;29.83;25.92;102472.91;5054991;28;45557;-71
2022/07/08 16:04:40;;;;;;;;;3.00;2.00;;;;;29.82;25.83;102474.75;5056381;28;45289;-71
2022/07/08 16:07:06;;;;;;;;;3.50;3.00;;;;;29.66;26.38;102453.06;5056934;28;45504;-70
2022/07/08 16:09:32;;;;;;;;;2.50;2.00;;;;;29.78;25.68;102463.25;5054272;28;45414;-71
2022/07/08 16:11:58;;;;;;;;;3.00;3.00;;;;;29.70;25.79;102448.38;5058107;28;45504;-71
2022/07/08 16:14:24;;;;;;;;;3.00;2.00;;;;;29.67;25.72;102446.72;5058104;28;45678;-71
2022/07/08 16:16:50;;;;;;;;;2.00;2.00;;;;;29.77;26.09;102452.53;5054359;28;45465;-71
2022/07/08 16:19:15;;;;;;;;;3.00;3.00;;;;;29.76;25.28;102450.78;5054348;28;45520;-71
2022/07/08 16:21:45;;;;;;;;;3.50;2.75;;;;;29.74;26.17;102458.09;5054539;28;45334;-71
2022/07/08 16:24:12;;;;;;;;;2.00;0.00;;;;;29.74;25.81;102456.25;5052804;28;45375;-70
2022/07/08 16:26:38;;;;;;;;;2.50;2.00;;;;;29.75;26.19;102459.81;5054406;28;45236;-70
2022/07/08 16:29:04;;;;;;;;;2.75;2.00;;;;;29.73;26.72;102457.22;5053958;28;45406;-70
2022/07/08 16:31:36;;;;;;;;;2.00;2.00;;;;;29.60;26.75;102434.47;5054173;28;45469;-71
2022/07/08 16:34:03;;;;;;;;;2.00;2.00;;;;;29.55;26.15;102450.91;5042845;28;45386;-71
2022/07/08 16:36:29;;;;;;;;;2.50;2.50;;;;;29.52;26.56;102459.16;5051723;28;45601;-71
2022/07/08 16:38:55;;;;;;;;;3.50;2.00;;;;;29.35;26.72;102427.63;5054035;28;46319;-73
2022/07/08 16:41:21;;;;;;;;;1.20;1.20;;;;;29.44;26.29;102442.47;5051669;28;45557;-70
2022/07/08 16:43:47;;;;;;;;;3.00;2.00;;;;;29.47;26.38;102439.63;5054108;28;45319;-71
2022/07/08 16:46:13;;;;;;;;;3.00;3.00;;;;;29.53;26.19;102449.22;5056279;28;45903;-69
2022/07/08 16:48:39;;;;;;;;;3.25;3.25;;;;;29.44;26.20;102431.66;5056240;28;45561;-70
2022/07/08 16:51:05;;;;;;;;;1.50;1.50;;;;;29.44;26.39;102447.84;5054423;28;45347;-71
2022/07/08 16:53:31;;;;;;;;;3.00;1.25;;;;;29.40;26.35;102438.19;5054180;28;45528;-72
2022/07/08 16:55:56;;;;;;;;;1.00;1.00;;;;;29.16;26.49;102407.91;5054232;28;45420;-72
2022/07/08 16:58:22;;;;;;;;;2.50;2.00;;;;;29.19;26.09;102418.56;5053773;28;45374;-71
2022/07/08 17:00:47;;;;;;;;;2.00;2.00;;;;;29.24;26.63;102434.53;5054543;28;45410;-71
2022/07/08 17:03:13;;;;;;;;;2.50;2.50;;;;;29.20;26.10;102432.91;5054503;28;45422;-71
2022/07/08 17:05:39;;;;;;;;;2.00;2.00;;;;;28.98;26.53;102412.38;5054422;28;45469;-71
2022/07/08 17:08:05;;;;;;;;;4.75;3.00;;;;;28.93;27.10;102430.59;5054228;28;45497;-71
2022/07/08 17:10:31;;;;;;;;;2.00;2.00;;;;;28.88;26.97;102428.13;5054121;28;45400;-70
2022/07/08 17:12:57;;;;;;;;;2.50;2.50;;;;;28.74;26.85;102431.47;5054059;28;45554;-73
2022/07/08 17:15:22;;;;;;;;;4.00;3.00;;;;;28.72;27.54;102425.28;5053906;28;45708;-71
2022/07/08 17:17:50;;;;;;;;;4.00;4.00;;;;;28.67;27.61;102421.94;5053902;28;45538;-70
2022/07/08 17:20:16;;;;;;;;;5.00;3.00;;;;;28.68;27.63;102417.41;5054272;28;45410;-68
2022/07/08 17:22:42;;;;;;;;;1.75;1.75;;;;;28.65;27.73;102413.03;5037350;28;45446;-70
2022/07/08 17:25:09;;;;;;;;;2.50;2.50;;;;;28.68;27.33;102420.13;5050626;28;45225;-68